Terminal Aerodrome Forecast
Issued by NWS Goodland, KS

Home | Current Version | Previous Version | Text Only | Print | Product List | Glossary On
Versions: 1 2 3 4 5 6 7 8 9 10 11 12 13 14
000
FTUS43 KGLD 272330
TAFGLD
TAF
KGLD 272330Z 2800/2824 19012KT P6SM SCT200
     FM280200 21012G20KT P6SM SCT200 WS010/24040KT
     FM280700 25011KT P6SM SCT150
     FM281700 01013G24KT P6SM BKN090=

USA.gov is the U.S. government's official web portal to all federal, state and local government web resources and services.